sensor_id;sensor_type;location;lat;lon;timestamp;pressure;altitude;pressure_sealevel;temperature;humidity
68594;BME280;55563;52.416;13.548;2023-09-07T00:01:59;101957.22;;;17.34;100.00
68594;BME280;55563;52.416;13.548;2023-09-07T00:03:59;101959.34;;;17.27;100.00
68594;BME280;55563;52.416;13.548;2023-09-07T00:06:00;101957.78;;;17.26;100.00
68594;BME280;55563;52.416;13.548;2023-09-07T00:08:01;101953.25;;;17.27;100.00
68594;BME280;55563;52.416;13.548;2023-09-07T00:10:01;101956.72;;;17.22;100.00
68594;BME280;55563;52.416;13.548;2023-09-07T00:12:02;101959.53;;;17.51;100.00
68594;BME280;55563;52.416;13.548;2023-09-07T00:14:03;101964.41;;;17.34;100.00
68594;BME280;55563;52.416;13.548;2023-09-07T00:16:05;101962.56;;;17.29;100.00
68594;BME280;55563;52.416;13.548;2023-09-07T00:18:06;101964.13;;;17.35;100.00
68594;BME280;55563;52.416;13.548;2023-09-07T00:20:06;101969.16;;;17.37;100.00
68594;BME280;55563;52.416;13.548;2023-09-07T00:22:11;101970.22;;;17.41;100.00
68594;BME280;55563;52.416;13.548;2023-09-07T00:24:11;101967.03;;;17.39;100.00
68594;BME280;55563;52.416;13.548;2023-09-07T00:26:12;101962.34;;;17.16;100.00
68594;BME280;55563;52.416;13.548;2023-09-07T00:28:14;101961.53;;;17.15;100.00
68594;BME280;55563;52.416;13.548;2023-09-07T00:30:14;101959.09;;;17.34;100.00
68594;BME280;55563;52.416;13.548;2023-09-07T00:32:15;101963.63;;;17.18;100.00
68594;BME280;55563;52.416;13.548;2023-09-07T00:34:15;101968.94;;;17.18;100.00
68594;BME280;55563;52.416;13.548;2023-09-07T00:36:16;101963.16;;;16.91;100.00
68594;BME280;55563;52.416;13.548;2023-09-07T00:38:17;101969.28;;;17.02;100.00
68594;BME280;55563;52.416;13.548;2023-09-07T00:40:17;101962.38;;;16.95;100.00
68594;BME280;55563;52.416;13.548;2023-09-07T00:42:18;101965.56;;;16.62;100.00
68594;BME280;55563;52.416;13.548;2023-09-07T00:44:19;101967.19;;;16.73;100.00
68594;BME280;55563;52.416;13.548;2023-09-07T00:46:20;101960.75;;;16.94;100.00
68594;BME280;55563;52.416;13.548;2023-09-07T00:48:23;101966.38;;;16.83;100.00
68594;BME280;55563;52.416;13.548;2023-09-07T00:50:24;101971.16;;;16.66;100.00
68594;BME280;55563;52.416;13.548;2023-09-07T00:52:24;101964.22;;;16.44;100.00
68594;BME280;55563;52.416;13.548;2023-09-07T00:54:25;101962.09;;;16.51;100.00
68594;BME280;55563;52.416;13.548;2023-09-07T00:56:26;101963.19;;;16.81;100.00
68594;BME280;55563;52.416;13.548;2023-09-07T00:58:27;101966.38;;;16.78;100.00
68594;BME280;55563;52.416;13.548;2023-09-07T01:00:28;101966.63;;;16.71;100.00
68594;BME280;55563;52.416;13.548;2023-09-07T01:02:29;101960.75;;;16.34;100.00
68594;BME280;55563;52.416;13.548;2023-09-07T01:04:30;101960.50;;;16.50;100.00
68594;BME280;55563;52.416;13.548;2023-09-07T01:06:43;101971.44;;;16.59;100.00
68594;BME280;55563;52.416;13.548;2023-09-07T01:08:49;101963.69;;;16.52;100.00
68594;BME280;55563;52.416;13.548;2023-09-07T01:10:52;101968.78;;;16.64;100.00
68594;BME280;55563;52.416;13.548;2023-09-07T01:12:53;101965.28;;;16.43;100.00
68594;BME280;55563;52.416;13.548;2023-09-07T01:14:54;101957.88;;;16.66;100.00
68594;BME280;55563;52.416;13.548;2023-09-07T01:16:56;101958.94;;;16.70;100.00
68594;BME280;55563;52.416;13.548;2023-09-07T01:18:57;101961.59;;;16.75;100.00
68594;BME280;55563;52.416;13.548;2023-09-07T01:20:58;101957.03;;;16.50;100.00
68594;BME280;55563;52.416;13.548;2023-09-07T01:23:01;101961.03;;;16.52;100.00
68594;BME280;55563;52.416;13.548;2023-09-07T01:25:04;101958.94;;;16.60;100.00
68594;BME280;55563;52.416;13.548;2023-09-07T01:27:06;101961.88;;;16.63;100.00
68594;BME280;55563;52.416;13.548;2023-09-07T01:29:08;101962.91;;;16.67;100.00
68594;BME280;55563;52.416;13.548;2023-09-07T01:31:10;101966.88;;;16.60;100.00
68594;BME280;55563;52.416;13.548;2023-09-07T01:33:10;101966.34;;;16.47;100.00
68594;BME280;55563;52.416;13.548;2023-09-07T01:35:14;101956.50;;;16.38;100.00
68594;BME280;55563;52.416;13.548;2023-09-07T01:37:17;101961.00;;;16.22;100.00
68594;BME280;55563;52.416;13.548;2023-09-07T01:39:18;101963.13;;;16.10;100.00
68594;BME280;55563;52.416;13.548;2023-09-07T01:41:18;101961.28;;;16.26;100.00
68594;BME280;55563;52.416;13.548;2023-09-07T01:43:19;101957.53;;;16.22;100.00
68594;BME280;55563;52.416;13.548;2023-09-07T01:45:20;101961.00;;;16.27;100.00
68594;BME280;55563;52.416;13.548;2023-09-07T01:47:22;101957.03;;;16.25;100.00
68594;BME280;55563;52.416;13.548;2023-09-07T01:49:23;101957.25;;;16.03;100.00
68594;BME280;55563;52.416;13.548;2023-09-07T01:51:23;101959.41;;;16.21;100.00
68594;BME280;55563;52.416;13.548;2023-09-07T01:53:28;101960.75;;;16.29;100.00
68594;BME280;55563;52.416;13.548;2023-09-07T01:55:28;101956.78;;;16.41;100.00
68594;BME280;55563;52.416;13.548;2023-09-07T01:57:31;101960.22;;;16.27;100.00
68594;BME280;55563;52.416;13.548;2023-09-07T01:59:32;101955.19;;;16.30;100.00
68594;BME280;55563;52.416;13.548;2023-09-07T02:01:32;101960.47;;;16.15;100.00
68594;BME280;55563;52.416;13.548;2023-09-07T02:03:37;101957.00;;;16.09;100.00
68594;BME280;55563;52.416;13.548;2023-09-07T02:05:39;101965.47;;;15.91;100.00
68594;BME280;55563;52.416;13.548;2023-09-07T02:07:39;101956.19;;;15.99;100.00
68594;BME280;55563;52.416;13.548;2023-09-07T02:09:41;101958.59;;;16.00;100.00
68594;BME280;55563;52.416;13.548;2023-09-07T02:11:42;101962.50;;;15.88;100.00
68594;BME280;55563;52.416;13.548;2023-09-07T02:13:45;101960.13;;;15.86;100.00
68594;BME280;55563;52.416;13.548;2023-09-07T02:15:46;101962.25;;;15.84;100.00
68594;BME280;55563;52.416;13.548;2023-09-07T02:17:47;101964.94;;;16.04;100.00
68594;BME280;55563;52.416;13.548;2023-09-07T02:19:50;101963.56;;;15.77;100.00
68594;BME280;55563;52.416;13.548;2023-09-07T02:21:51;101968.06;;;15.81;100.00
68594;BME280;55563;52.416;13.548;2023-09-07T02:23:53;101958.59;;;16.00;100.00
68594;BME280;55563;52.416;13.548;2023-09-07T02:25:54;101964.69;;;16.01;100.00
68594;BME280;55563;52.416;13.548;2023-09-07T02:27:55;101956.97;;;15.94;100.00
68594;BME280;55563;52.416;13.548;2023-09-07T02:29:56;101957.22;;;15.98;100.00
68594;BME280;55563;52.416;13.548;2023-09-07T02:31:57;101959.06;;;15.82;100.00
68594;BME280;55563;52.416;13.548;2023-09-07T02:33:58;101966.72;;;15.79;100.00
68594;BME280;55563;52.416;13.548;2023-09-07T02:35:59;101961.22;;;15.90;100.00
68594;BME280;55563;52.416;13.548;2023-09-07T02:38:00;101956.97;;;15.99;100.00
68594;BME280;55563;52.416;13.548;2023-09-07T02:40:01;101962.25;;;15.89;100.00
68594;BME280;55563;52.416;13.548;2023-09-07T02:42:02;101962.03;;;15.96;100.00
68594;BME280;55563;52.416;13.548;2023-09-07T02:44:02;101965.19;;;15.98;100.00
68594;BME280;55563;52.416;13.548;2023-09-07T02:46:03;101970.50;;;15.98;100.00
68594;BME280;55563;52.416;13.548;2023-09-07T02:48:05;101971.28;;;15.98;100.00
68594;BME280;55563;52.416;13.548;2023-09-07T02:50:07;101960.94;;;16.02;100.00
68594;BME280;55563;52.416;13.548;2023-09-07T02:52:08;101959.66;;;16.04;100.00
68594;BME280;55563;52.416;13.548;2023-09-07T02:54:08;101963.59;;;15.87;100.00
68594;BME280;55563;52.416;13.548;2023-09-07T02:56:09;101960.66;;;15.93;100.00
68594;BME280;55563;52.416;13.548;2023-09-07T02:58:13;101962.25;;;15.89;100.00
68594;BME280;55563;52.416;13.548;2023-09-07T03:00:14;101966.53;;;15.95;100.00
68594;BME280;55563;52.416;13.548;2023-09-07T03:02:19;101967.81;;;15.78;100.00
68594;BME280;55563;52.416;13.548;2023-09-07T03:04:19;101963.56;;;15.77;100.00
68594;BME280;55563;52.416;13.548;2023-09-07T03:06:20;101965.66;;;15.75;100.00
68594;BME280;55563;52.416;13.548;2023-09-07T03:08:24;101972.28;;;15.72;100.00
68594;BME280;55563;52.416;13.548;2023-09-07T03:10:25;101969.31;;;15.63;100.00
68594;BME280;55563;52.416;13.548;2023-09-07T03:12:27;101966.94;;;15.62;100.00
68594;BME280;55563;52.416;13.548;2023-09-07T03:14:28;101971.88;;;15.43;100.00
68594;BME280;55563;52.416;13.548;2023-09-07T03:16:28;101974.22;;;15.35;100.00
68594;BME280;55563;52.416;13.548;2023-09-07T03:18:31;101976.88;;;15.45;100.00
68594;BME280;55563;52.416;13.548;2023-09-07T03:20:33;101976.09;;;15.39;100.00
68594;BME280;55563;52.416;13.548;2023-09-07T03:22:35;101978.06;;;15.54;100.00
68594;BME280;55563;52.416;13.548;2023-09-07T03:24:36;101974.84;;;15.52;100.00
68594;BME280;55563;52.416;13.548;2023-09-07T03:26:37;101982.09;;;15.24;100.00
68594;BME280;55563;52.416;13.548;2023-09-07T03:28:38;101969.47;;;15.42;100.00
68594;BME280;55563;52.416;13.548;2023-09-07T03:30:39;101971.78;;;15.28;100.00
68594;BME280;55563;52.416;13.548;2023-09-07T03:32:40;101971.31;;;15.41;100.00
68594;BME280;55563;52.416;13.548;2023-09-07T03:34:40;101967.31;;;15.34;100.00
68594;BME280;55563;52.416;13.548;2023-09-07T03:36:41;101967.59;;;15.37;100.00
68594;BME280;55563;52.416;13.548;2023-09-07T03:38:42;101975.56;;;15.42;100.00
68594;BME280;55563;52.416;13.548;2023-09-07T03:40:43;101973.44;;;15.39;100.00
68594;BME280;55563;52.416;13.548;2023-09-07T03:42:44;101981.31;;;15.29;100.00
68594;BME280;55563;52.416;13.548;2023-09-07T03:44:47;101984.25;;;15.33;100.00
68594;BME280;55563;52.416;13.548;2023-09-07T03:46:48;101980.31;;;15.40;100.00
68594;BME280;55563;52.416;13.548;2023-09-07T03:48:48;101983.75;;;15.41;100.00
68594;BME280;55563;52.416;13.548;2023-09-07T03:50:49;101977.91;;;15.34;100.00
68594;BME280;55563;52.416;13.548;2023-09-07T03:52:49;101977.13;;;15.38;100.00
68594;BME280;55563;52.416;13.548;2023-09-07T03:54:51;101985.09;;;15.38;100.00
68594;BME280;55563;52.416;13.548;2023-09-07T03:56:52;101969.94;;;15.28;100.00
68594;BME280;55563;52.416;13.548;2023-09-07T03:58:54;101973.88;;;15.26;100.00
68594;BME280;55563;52.416;13.548;2023-09-07T04:00:54;101978.69;;;15.29;100.00
68594;BME280;55563;52.416;13.548;2023-09-07T04:02:56;101979.94;;;15.21;100.00
68594;BME280;55563;52.416;13.548;2023-09-07T04:04:56;101982.09;;;15.24;100.00
68594;BME280;55563;52.416;13.548;2023-09-07T04:06:57;101978.34;;;15.20;100.00
68594;BME280;55563;52.416;13.548;2023-09-07T04:08:58;101986.00;;;15.17;100.00
68594;BME280;55563;52.416;13.548;2023-09-07T04:11:03;101982.56;;;15.16;100.00
68594;BME280;55563;52.416;13.548;2023-09-07T04:13:04;101987.38;;;15.19;100.00
68594;BME280;55563;52.416;13.548;2023-09-07T04:15:06;101993.97;;;15.22;100.00
68594;BME280;55563;52.416;13.548;2023-09-07T04:17:07;101990.84;;;15.25;100.00
68594;BME280;55563;52.416;13.548;2023-09-07T04:19:08;101986.88;;;15.27;100.00
68594;BME280;55563;52.416;13.548;2023-09-07T04:21:09;101987.44;;;15.30;100.00
68594;BME280;55563;52.416;13.548;2023-09-07T04:23:10;101995.59;;;15.23;100.00
68594;BME280;55563;52.416;13.548;2023-09-07T04:25:11;101994.03;;;15.27;100.00
68594;BME280;55563;52.416;13.548;2023-09-07T04:27:11;101996.06;;;15.15;100.00
68594;BME280;55563;52.416;13.548;2023-09-07T04:29:12;102003.75;;;15.16;100.00
68594;BME280;55563;52.416;13.548;2023-09-07T04:31:14;101997.59;;;15.06;100.00
68594;BME280;55563;52.416;13.548;2023-09-07T04:33:15;101998.66;;;15.05;100.00
68594;BME280;55563;52.416;13.548;2023-09-07T04:35:15;102001.59;;;15.08;100.00
68594;BME280;55563;52.416;13.548;2023-09-07T04:37:16;101998.38;;;15.06;100.00
68594;BME280;55563;52.416;13.548;2023-09-07T04:39:17;102001.03;;;15.06;100.00
68594;BME280;55563;52.416;13.548;2023-09-07T04:41:18;101998.94;;;15.08;100.00
68594;BME280;55563;52.416;13.548;2023-09-07T04:43:19;102003.38;;;15.03;100.00
68594;BME280;55563;52.416;13.548;2023-09-07T04:45:20;102002.38;;;15.09;100.00
68594;BME280;55563;52.416;13.548;2023-09-07T04:47:20;102003.28;;;15.24;100.00
68594;BME280;55563;52.416;13.548;2023-09-07T04:49:23;102001.63;;;15.13;100.00
68594;BME280;55563;52.416;13.548;2023-09-07T04:51:24;101997.38;;;15.12;100.00
68594;BME280;55563;52.416;13.548;2023-09-07T04:53:29;102003.22;;;15.14;100.00
68594;BME280;55563;52.416;13.548;2023-09-07T04:55:30;102001.81;;;15.07;100.00
68594;BME280;55563;52.416;13.548;2023-09-07T04:57:30;102002.94;;;15.16;100.00
68594;BME280;55563;52.416;13.548;2023-09-07T04:59:31;101996.78;;;15.00;100.00
68594;BME280;55563;52.416;13.548;2023-09-07T05:01:32;102012.31;;;14.92;100.00
68594;BME280;55563;52.416;13.548;2023-09-07T05:03:33;102011.41;;;15.13;100.00
68594;BME280;55563;52.416;13.548;2023-09-07T05:05:34;102003.22;;;15.14;100.00
68594;BME280;55563;52.416;13.548;2023-09-07T05:07:35;102007.13;;;15.07;100.00
68594;BME280;55563;52.416;13.548;2023-09-07T05:09:36;102008.19;;;15.11;100.00
68594;BME280;55563;52.416;13.548;2023-09-07T05:11:37;102008.84;;;15.23;100.00
68594;BME280;55563;52.416;13.548;2023-09-07T05:13:38;102013.13;;;15.29;100.00
68594;BME280;55563;52.416;13.548;2023-09-07T05:15:47;102010.09;;;15.52;100.00
68594;BME280;55563;52.416;13.548;2023-09-07T05:17:49;102017.06;;;15.74;100.00
68594;BME280;55563;52.416;13.548;2023-09-07T05:19:49;102013.03;;;16.28;100.00
68594;BME280;55563;52.416;13.548;2023-09-07T05:21:50;102007.50;;;17.11;100.00
68594;BME280;55563;52.416;13.548;2023-09-07T05:23:51;102004.00;;;17.40;100.00
68594;BME280;55563;52.416;13.548;2023-09-07T05:25:53;102008.28;;;16.55;100.00
68594;BME280;55563;52.416;13.548;2023-09-07T05:27:55;102014.63;;;16.34;100.00
68594;BME280;55563;52.416;13.548;2023-09-07T05:29:56;102013.38;;;16.97;100.00
68594;BME280;55563;52.416;13.548;2023-09-07T05:31:56;102008.03;;;16.57;100.00
68594;BME280;55563;52.416;13.548;2023-09-07T05:33:58;102015.13;;;17.42;100.00
68594;BME280;55563;52.416;13.548;2023-09-07T05:35:59;102007.03;;;17.88;100.00
68594;BME280;55563;52.416;13.548;2023-09-07T05:37:59;102007.31;;;19.03;100.00
68594;BME280;55563;52.416;13.548;2023-09-07T05:40:00;102005.22;;;18.95;100.00
68594;BME280;55563;52.416;13.548;2023-09-07T05:42:01;102019.25;;;17.89;100.00
68594;BME280;55563;52.416;13.548;2023-09-07T05:44:01;102016.13;;;17.72;100.00
68594;BME280;55563;52.416;13.548;2023-09-07T05:46:03;102016.22;;;18.11;100.00
68594;BME280;55563;52.416;13.548;2023-09-07T05:48:04;102008.03;;;18.80;100.00
68594;BME280;55563;52.416;13.548;2023-09-07T05:50:05;102002.25;;;19.02;100.00
68594;BME280;55563;52.416;13.548;2023-09-07T05:52:07;102012.22;;;18.57;100.00
68594;BME280;55563;52.416;13.548;2023-09-07T05:54:08;102014.09;;;19.67;100.00
68594;BME280;55563;52.416;13.548;2023-09-07T05:56:09;102016.94;;;19.76;100.00
68594;BME280;55563;52.416;13.548;2023-09-07T05:58:10;102014.84;;;19.49;100.00
68594;BME280;55563;52.416;13.548;2023-09-07T06:00:16;102017.63;;;20.24;100.00
68594;BME280;55563;52.416;13.548;2023-09-07T06:02:18;102016.75;;;20.66;100.00
68594;BME280;55563;52.416;13.548;2023-09-07T06:04:18;102020.16;;;21.17;100.00
68594;BME280;55563;52.416;13.548;2023-09-07T06:06:19;102018.22;;;21.04;100.00
68594;BME280;55563;52.416;13.548;2023-09-07T06:08:19;102025.13;;;20.92;100.00
68594;BME280;55563;52.416;13.548;2023-09-07T06:10:21;102028.41;;;21.62;100.00
68594;BME280;55563;52.416;13.548;2023-09-07T06:12:23;102028.69;;;21.60;100.00
68594;BME280;55563;52.416;13.548;2023-09-07T06:14:24;102029.78;;;22.00;100.00
68594;BME280;55563;52.416;13.548;2023-09-07T06:16:24;102038.53;;;22.50;100.00
68594;BME280;55563;52.416;13.548;2023-09-07T06:18:25;102041.94;;;22.42;100.00
68594;BME280;55563;52.416;13.548;2023-09-07T06:20:26;102030.31;;;22.47;100.00
68594;BME280;55563;52.416;13.548;2023-09-07T06:22:26;102031.06;;;22.39;100.00
68594;BME280;55563;52.416;13.548;2023-09-07T06:24:27;102029.50;;;22.69;100.00
68594;BME280;55563;52.416;13.548;2023-09-07T06:26:28;102026.25;;;23.64;100.00
68594;BME280;55563;52.416;13.548;2023-09-07T06:28:29;102024.94;;;23.22;100.00
68594;BME280;55563;52.416;13.548;2023-09-07T06:30:29;102028.56;;;22.87;100.00
68594;BME280;55563;52.416;13.548;2023-09-07T06:32:30;102030.19;;;22.96;100.00
68594;BME280;55563;52.416;13.548;2023-09-07T06:34:31;102032.88;;;23.67;100.00
68594;BME280;55563;52.416;13.548;2023-09-07T06:36:32;102030.09;;;24.06;100.00
68594;BME280;55563;52.416;13.548;2023-09-07T06:38:32;102034.84;;;24.44;100.00
68594;BME280;55563;52.416;13.548;2023-09-07T06:40:34;102030.66;;;25.06;100.00
68594;BME280;55563;52.416;13.548;2023-09-07T06:42:34;102033.03;;;23.70;100.00
68594;BME280;55563;52.416;13.548;2023-09-07T06:44:39;102030.41;;;23.96;100.00
68594;BME280;55563;52.416;13.548;2023-09-07T06:46:40;102029.97;;;23.15;100.00
68594;BME280;55563;52.416;13.548;2023-09-07T06:48:41;102024.28;;;23.17;100.00
68594;BME280;55563;52.416;13.548;2023-09-07T06:50:41;102031.69;;;25.23;100.00
68594;BME280;55563;52.416;13.548;2023-09-07T06:52:42;102038.53;;;25.11;100.00
68594;BME280;55563;52.416;13.548;2023-09-07T06:54:43;102032.28;;;24.04;100.00
68594;BME280;55563;52.416;13.548;2023-09-07T06:56:43;102031.81;;;23.06;100.00
68594;BME280;55563;52.416;13.548;2023-09-07T06:58:44;102026.53;;;23.54;100.00
68594;BME280;55563;52.416;13.548;2023-09-07T07:00:45;102038.47;;;22.64;100.00
68594;BME280;55563;52.416;13.548;2023-09-07T07:02:48;102041.25;;;22.73;100.00
68594;BME280;55563;52.416;13.548;2023-09-07T07:04:49;102041.41;;;22.54;100.00
68594;BME280;55563;52.416;13.548;2023-09-07T07:06:50;102040.72;;;23.15;100.00
68594;BME280;55563;52.416;13.548;2023-09-07T07:08:51;102038.66;;;22.90;100.00
68594;BME280;55563;52.416;13.548;2023-09-07T07:10:52;102035.19;;;22.67;100.00
68594;BME280;55563;52.416;13.548;2023-09-07T07:12:53;102040.72;;;22.93;100.00
68594;BME280;55563;52.416;13.548;2023-09-07T07:14:54;102045.72;;;22.41;100.00
68594;BME280;55563;52.416;13.548;2023-09-07T07:16:55;102036.00;;;22.90;100.00
68594;BME280;55563;52.416;13.548;2023-09-07T07:18:56;102039.28;;;22.87;100.00
68594;BME280;55563;52.416;13.548;2023-09-07T07:20:58;102045.66;;;22.55;100.00
68594;BME280;55563;52.416;13.548;2023-09-07T07:22:58;102046.84;;;22.63;100.00
68594;BME280;55563;52.416;13.548;2023-09-07T07:24:59;102044.19;;;23.16;100.00
68594;BME280;55563;52.416;13.548;2023-09-07T07:27:05;102039.81;;;22.97;100.00
68594;BME280;55563;52.416;13.548;2023-09-07T07:29:08;102046.03;;;22.84;100.00
68594;BME280;55563;52.416;13.548;2023-09-07T07:31:10;102038.38;;;22.91;100.00
68594;BME280;55563;52.416;13.548;2023-09-07T07:33:12;102038.19;;;23.19;100.00
68594;BME280;55563;52.416;13.548;2023-09-07T07:35:13;102050.22;;;23.21;100.00
68594;BME280;55563;52.416;13.548;2023-09-07T07:37:15;102053.84;;;22.94;100.00
68594;BME280;55563;52.416;13.548;2023-09-07T07:39:15;102047.91;;;22.61;100.00
68594;BME280;55563;52.416;13.548;2023-09-07T07:41:16;102052.63;;;22.78;100.00
68594;BME280;55563;52.416;13.548;2023-09-07T07:43:17;102061.94;;;22.58;100.00
68594;BME280;55563;52.416;13.548;2023-09-07T07:45:18;102051.25;;;22.81;100.00
68594;BME280;55563;52.416;13.548;2023-09-07T07:47:21;102054.13;;;22.93;100.00
68594;BME280;55563;52.416;13.548;2023-09-07T07:49:21;102052.47;;;23.36;100.00
68594;BME280;55563;52.416;13.548;2023-09-07T07:51:22;102050.84;;;23.27;100.00
68594;BME280;55563;52.416;13.548;2023-09-07T07:53:25;102051.47;;;23.24;100.00
68594;BME280;55563;52.416;13.548;2023-09-07T07:55:26;102052.16;;;23.07;100.00
68594;BME280;55563;52.416;13.548;2023-09-07T07:57:26;102048.59;;;23.12;100.00
68594;BME280;55563;52.416;13.548;2023-09-07T07:59:27;102055.97;;;22.84;100.00
68594;BME280;55563;52.416;13.548;2023-09-07T08:01:28;102044.31;;;23.11;100.00
68594;BME280;55563;52.416;13.548;2023-09-07T08:03:30;102046.28;;;23.36;100.00
68594;BME280;55563;52.416;13.548;2023-09-07T08:05:32;102039.41;;;23.43;100.00
68594;BME280;55563;52.416;13.548;2023-09-07T08:07:32;102044.59;;;23.40;100.00
68594;BME280;55563;52.416;13.548;2023-09-07T08:09:34;102049.97;;;23.40;100.00
68594;BME280;55563;52.416;13.548;2023-09-07T08:11:48;102043.16;;;23.73;100.00
68594;BME280;55563;52.416;13.548;2023-09-07T08:13:49;102054.84;;;23.69;100.00
68594;BME280;55563;52.416;13.548;2023-09-07T08:15:51;102049.50;;;23.95;100.00
68594;BME280;55563;52.416;13.548;2023-09-07T08:17:52;102049.31;;;23.74;100.00
68594;BME280;55563;52.416;13.548;2023-09-07T08:19:52;102056.09;;;23.80;99.71
68594;BME280;55563;52.416;13.548;2023-09-07T08:21:58;102048.25;;;23.83;97.51
68594;BME280;55563;52.416;13.548;2023-09-07T08:23:59;102055.81;;;23.81;100.00
68594;BME280;55563;52.416;13.548;2023-09-07T08:26:00;102058.63;;;23.68;99.76
68594;BME280;55563;52.416;13.548;2023-09-07T08:28:01;102053.34;;;24.19;98.24
68594;BME280;55563;52.416;13.548;2023-09-07T08:30:06;102059.22;;;24.21;94.87
68594;BME280;55563;52.416;13.548;2023-09-07T08:32:07;102056.22;;;24.31;94.69
68594;BME280;55563;52.416;13.548;2023-09-07T08:34:12;102058.50;;;24.85;94.54
68594;BME280;55563;52.416;13.548;2023-09-07T08:36:13;102050.03;;;24.22;94.35
68594;BME280;55563;52.416;13.548;2023-09-07T08:38:17;102047.19;;;24.53;92.47
68594;BME280;55563;52.416;13.548;2023-09-07T08:40:19;102047.97;;;24.62;91.19
68594;BME280;55563;52.416;13.548;2023-09-07T08:42:19;102050.88;;;25.12;91.23
68594;BME280;55563;52.416;13.548;2023-09-07T08:44:20;102048.03;;;25.09;86.50
68594;BME280;55563;52.416;13.548;2023-09-07T08:46:22;102052.53;;;24.88;84.75
68594;BME280;55563;52.416;13.548;2023-09-07T08:48:23;102061.34;;;25.05;88.82
68594;BME280;55563;52.416;13.548;2023-09-07T08:50:26;102054.72;;;25.41;87.12
68594;BME280;55563;52.416;13.548;2023-09-07T08:52:28;102048.78;;;25.27;86.41
68594;BME280;55563;52.416;13.548;2023-09-07T08:54:28;102057.06;;;25.04;86.52
68594;BME280;55563;52.416;13.548;2023-09-07T08:56:30;102056.47;;;24.90;88.23
68594;BME280;55563;52.416;13.548;2023-09-07T08:58:30;102050.88;;;25.12;86.33
68594;BME280;55563;52.416;13.548;2023-09-07T09:00:32;102037.66;;;25.37;85.45
68594;BME280;55563;52.416;13.548;2023-09-07T09:02:33;102051.69;;;25.80;81.00
68594;BME280;55563;52.416;13.548;2023-09-07T09:04:34;102044.88;;;26.03;82.63
68594;BME280;55563;52.416;13.548;2023-09-07T09:06:35;102049.53;;;26.15;76.18
68594;BME280;55563;52.416;13.548;2023-09-07T09:10:59;102040.97;;;25.72;73.27
68594;BME280;55563;52.416;13.548;2023-09-07T09:13:03;102041.44;;;26.15;73.89
68594;BME280;55563;52.416;13.548;2023-09-07T09:15:05;102039.75;;;25.90;78.65
68594;BME280;55563;52.416;13.548;2023-09-07T09:17:11;102042.78;;;25.59;73.34
68594;BME280;55563;52.416;13.548;2023-09-07T09:19:12;102039.63;;;25.48;74.08
68594;BME280;55563;52.416;13.548;2023-09-07T09:21:14;102032.75;;;25.68;75.22
68594;BME280;55563;52.416;13.548;2023-09-07T09:23:14;102035.69;;;26.46;74.87
68594;BME280;55563;52.416;13.548;2023-09-07T09:25:15;102034.09;;;25.83;72.44
68594;BME280;55563;52.416;13.548;2023-09-07T09:27:16;102037.16;;;25.73;72.69
68594;BME280;55563;52.416;13.548;2023-09-07T09:29:22;102033.38;;;26.36;75.13
68594;BME280;55563;52.416;13.548;2023-09-07T09:31:24;102030.66;;;26.15;74.69
68594;BME280;55563;52.416;13.548;2023-09-07T09:33:25;102026.75;;;26.13;73.70
68594;BME280;55563;52.416;13.548;2023-09-07T09:35:26;102028.25;;;26.01;72.51
68594;BME280;55563;52.416;13.548;2023-09-07T09:37:27;102018.44;;;26.18;72.47
68594;BME280;55563;52.416;13.548;2023-09-07T09:39:28;102022.78;;;26.52;73.10
68594;BME280;55563;52.416;13.548;2023-09-07T09:41:32;102021.69;;;26.32;72.09
68594;BME280;55563;52.416;13.548;2023-09-07T09:43:34;102021.41;;;26.25;69.94
68594;BME280;55563;52.416;13.548;2023-09-07T09:45:35;102021.34;;;26.13;74.35
68594;BME280;55563;52.416;13.548;2023-09-07T09:47:41;102026.03;;;26.24;69.19
68594;BME280;55563;52.416;13.548;2023-09-07T09:49:42;102011.59;;;26.20;67.84
68594;BME280;55563;52.416;13.548;2023-09-07T09:51:45;102014.25;;;26.29;71.68
68594;BME280;55563;52.416;13.548;2023-09-07T09:53:46;102012.91;;;26.23;68.67
68594;BME280;55563;52.416;13.548;2023-09-07T09:55:48;102016.88;;;26.37;67.64
68594;BME280;55563;52.416;13.548;2023-09-07T09:57:48;102011.06;;;26.47;68.56
68594;BME280;55563;52.416;13.548;2023-09-07T09:59:50;102009.69;;;26.41;61.77
68594;BME280;55563;52.416;13.548;2023-09-07T10:01:53;102006.63;;;26.31;58.06
68594;BME280;55563;52.416;13.548;2023-09-07T10:03:55;102002.41;;;26.42;56.87
68594;BME280;55563;52.416;13.548;2023-09-07T10:06:18;101998.03;;;26.50;59.18
68594;BME280;55563;52.416;13.548;2023-09-07T10:08:21;101990.91;;;26.66;57.22
68594;BME280;55563;52.416;13.548;2023-09-07T10:10:23;101994.59;;;26.61;59.24
68594;BME280;55563;52.416;13.548;2023-09-07T10:12:27;101998.78;;;26.71;61.67
68594;BME280;55563;52.416;13.548;2023-09-07T10:14:37;101988.16;;;26.99;63.79
68594;BME280;55563;52.416;13.548;2023-09-07T10:16:43;101989.63;;;27.08;61.31
68594;BME280;55563;52.416;13.548;2023-09-07T10:18:44;101987.72;;;27.21;55.86
68594;BME280;55563;52.416;13.548;2023-09-07T10:20:55;101994.47;;;27.03;52.86
68594;BME280;55563;52.416;13.548;2023-09-07T10:23:04;101994.00;;;27.01;53.93
68594;BME280;55563;52.416;13.548;2023-09-07T10:25:04;101992.78;;;27.22;56.38